sensor_id;sensor_type;location;lat;lon;timestamp;temperature;humidity
79026;DHT22;68425;44.716;37.756;2023-04-03T00:00:09;26.86;37.08
79026;DHT22;68425;44.716;37.756;2023-04-03T00:01:11;26.89;37.09
79026;DHT22;68425;44.716;37.756;2023-04-03T00:02:12;26.89;37.08
79026;DHT22;68425;44.716;37.756;2023-04-03T00:03:13;26.89;37.03
79026;DHT22;68425;44.716;37.756;2023-04-03T00:04:15;26.87;37.07
79026;DHT22;68425;44.716;37.756;2023-04-03T00:05:16;26.89;37.10
79026;DHT22;68425;44.716;37.756;2023-04-03T00:06:18;26.89;37.07
79026;DHT22;68425;44.716;37.756;2023-04-03T00:07:19;26.89;37.06
79026;DHT22;68425;44.716;37.756;2023-04-03T00:08:21;26.89;37.08
79026;DHT22;68425;44.716;37.756;2023-04-03T00:09:22;26.87;37.08
79026;DHT22;68425;44.716;37.756;2023-04-03T00:10:24;26.86;37.06
79026;DHT22;68425;44.716;37.756;2023-04-03T00:11:25;26.86;37.09
79026;DHT22;68425;44.716;37.756;2023-04-03T00:12:27;26.85;37.14
79026;DHT22;68425;44.716;37.756;2023-04-03T00:13:28;26.84;37.21
79026;DHT22;68425;44.716;37.756;2023-04-03T00:14:29;26.86;37.08
79026;DHT22;68425;44.716;37.756;2023-04-03T00:15:31;26.87;37.05
79026;DHT22;68425;44.716;37.756;2023-04-03T00:16:32;26.89;37.09
79026;DHT22;68425;44.716;37.756;2023-04-03T00:17:34;26.90;37.05
79026;DHT22;68425;44.716;37.756;2023-04-03T00:18:37;26.90;37.03
79026;DHT22;68425;44.716;37.756;2023-04-03T00:19:38;26.87;37.00
79026;DHT22;68425;44.716;37.756;2023-04-03T00:20:40;26.89;37.01
79026;DHT22;68425;44.716;37.756;2023-04-03T00:21:41;26.89;37.02
79026;DHT22;68425;44.716;37.756;2023-04-03T00:22:42;26.89;37.05
79026;DHT22;68425;44.716;37.756;2023-04-03T00:23:44;26.90;37.00
79026;DHT22;68425;44.716;37.756;2023-04-03T00:24:45;26.90;36.98
79026;DHT22;68425;44.716;37.756;2023-04-03T00:25:46;26.90;36.98
79026;DHT22;68425;44.716;37.756;2023-04-03T00:26:48;26.91;36.96
79026;DHT22;68425;44.716;37.756;2023-04-03T00:27:50;26.90;36.98
79026;DHT22;68425;44.716;37.756;2023-04-03T00:28:52;26.90;36.95
79026;DHT22;68425;44.716;37.756;2023-04-03T00:29:53;26.90;36.97
79026;DHT22;68425;44.716;37.756;2023-04-03T00:30:55;26.90;37.01
79026;DHT22;68425;44.716;37.756;2023-04-03T00:31:56;26.89;36.98
79026;DHT22;68425;44.716;37.756;2023-04-03T00:32:58;26.91;36.98
79026;DHT22;68425;44.716;37.756;2023-04-03T00:33:59;26.89;36.98
79026;DHT22;68425;44.716;37.756;2023-04-03T00:35:01;26.91;36.96
79026;DHT22;68425;44.716;37.756;2023-04-03T00:36:09;26.90;36.98
79026;DHT22;68425;44.716;37.756;2023-04-03T00:37:11;26.91;36.96
79026;DHT22;68425;44.716;37.756;2023-04-03T00:38:12;26.91;36.95
79026;DHT22;68425;44.716;37.756;2023-04-03T00:39:14;26.90;37.00
79026;DHT22;68425;44.716;37.756;2023-04-03T00:40:15;26.90;37.01
79026;DHT22;68425;44.716;37.756;2023-04-03T00:41:17;26.92;36.98
79026;DHT22;68425;44.716;37.756;2023-04-03T00:42:19;26.90;37.01
79026;DHT22;68425;44.716;37.756;2023-04-03T00:43:24;26.91;36.98
79026;DHT22;68425;44.716;37.756;2023-04-03T00:45:39;26.92;36.90
79026;DHT22;68425;44.716;37.756;2023-04-03T00:46:41;26.92;36.94
79026;DHT22;68425;44.716;37.756;2023-04-03T00:47:42;26.92;36.98
79026;DHT22;68425;44.716;37.756;2023-04-03T00:48:46;26.93;36.98
79026;DHT22;68425;44.716;37.756;2023-04-03T00:49:48;26.94;36.87
79026;DHT22;68425;44.716;37.756;2023-04-03T00:50:50;26.97;36.79
79026;DHT22;68425;44.716;37.756;2023-04-03T00:51:53;26.96;36.84
79026;DHT22;68425;44.716;37.756;2023-04-03T00:52:56;26.96;36.83
79026;DHT22;68425;44.716;37.756;2023-04-03T00:54:01;26.94;36.86
79026;DHT22;68425;44.716;37.756;2023-04-03T00:55:06;26.94;36.88
79026;DHT22;68425;44.716;37.756;2023-04-03T00:56:12;26.93;36.88
79026;DHT22;68425;44.716;37.756;2023-04-03T00:57:15;26.93;36.90
79026;DHT22;68425;44.716;37.756;2023-04-03T00:58:19;26.92;36.94
79026;DHT22;68425;44.716;37.756;2023-04-03T00:59:26;26.92;36.98
79026;DHT22;68425;44.716;37.756;2023-04-03T01:00:28;26.93;36.92
79026;DHT22;68425;44.716;37.756;2023-04-03T01:01:31;26.91;36.97
79026;DHT22;68425;44.716;37.756;2023-04-03T01:02:32;26.90;37.01
79026;DHT22;68425;44.716;37.756;2023-04-03T01:03:35;26.89;37.06
79026;DHT22;68425;44.716;37.756;2023-04-03T01:04:41;26.90;37.02
79026;DHT22;68425;44.716;37.756;2023-04-03T01:05:43;26.89;36.99
79026;DHT22;68425;44.716;37.756;2023-04-03T01:06:45;26.89;37.01
79026;DHT22;68425;44.716;37.756;2023-04-03T01:07:47;26.89;37.00
79026;DHT22;68425;44.716;37.756;2023-04-03T01:08:50;26.92;36.92
79026;DHT22;68425;44.716;37.756;2023-04-03T01:09:56;26.94;36.86
79026;DHT22;68425;44.716;37.756;2023-04-03T01:10:58;26.95;36.86
79026;DHT22;68425;44.716;37.756;2023-04-03T01:12:19;26.92;36.90
79026;DHT22;68425;44.716;37.756;2023-04-03T01:13:28;26.92;36.86
79026;DHT22;68425;44.716;37.756;2023-04-03T01:14:31;26.93;36.87
79026;DHT22;68425;44.716;37.756;2023-04-03T01:15:32;26.91;36.89
79026;DHT22;68425;44.716;37.756;2023-04-03T01:16:36;26.91;36.92
79026;DHT22;68425;44.716;37.756;2023-04-03T01:18:41;26.90;36.97
79026;DHT22;68425;44.716;37.756;2023-04-03T01:19:47;26.89;36.98
79026;DHT22;68425;44.716;37.756;2023-04-03T01:22:30;26.89;37.00
79026;DHT22;68425;44.716;37.756;2023-04-03T01:24:37;26.86;37.01
79026;DHT22;68425;44.716;37.756;2023-04-03T01:25:19;26.89;36.96
79026;DHT22;68425;44.716;37.756;2023-04-03T01:26:21;26.90;36.96
79026;DHT22;68425;44.716;37.756;2023-04-03T01:27:23;26.89;36.99
79026;DHT22;68425;44.716;37.756;2023-04-03T01:28:31;26.87;37.00
79026;DHT22;68425;44.716;37.756;2023-04-03T01:29:34;26.86;36.99
79026;DHT22;68425;44.716;37.756;2023-04-03T01:31:02;26.85;37.05
79026;DHT22;68425;44.716;37.756;2023-04-03T01:32:09;26.93;37.21
79026;DHT22;68425;44.716;37.756;2023-04-03T01:33:10;26.96;37.51
79026;DHT22;68425;44.716;37.756;2023-04-03T01:34:12;26.98;36.99
79026;DHT22;68425;44.716;37.756;2023-04-03T01:35:14;26.99;36.55
79026;DHT22;68425;44.716;37.756;2023-04-03T01:36:22;27.02;36.39
79026;DHT22;68425;44.716;37.756;2023-04-03T01:37:25;27.05;36.15
79026;DHT22;68425;44.716;37.756;2023-04-03T01:38:27;27.08;36.17
79026;DHT22;68425;44.716;37.756;2023-04-03T01:39:31;27.10;36.10
79026;DHT22;68425;44.716;37.756;2023-04-03T01:40:33;27.08;35.89
79026;DHT22;68425;44.716;37.756;2023-04-03T01:41:34;27.08;35.93
79026;DHT22;68425;44.716;37.756;2023-04-03T01:42:44;27.07;36.12
79026;DHT22;68425;44.716;37.756;2023-04-03T01:43:48;27.06;36.07
79026;DHT22;68425;44.716;37.756;2023-04-03T01:44:49;27.05;36.09
79026;DHT22;68425;44.716;37.756;2023-04-03T01:45:51;27.02;36.10
79026;DHT22;68425;44.716;37.756;2023-04-03T01:46:55;27.00;36.11
79026;DHT22;68425;44.716;37.756;2023-04-03T01:47:58;26.99;36.11
79026;DHT22;68425;44.716;37.756;2023-04-03T01:49:01;26.99;36.04
79026;DHT22;68425;44.716;37.756;2023-04-03T01:50:03;26.99;36.18
79026;DHT22;68425;44.716;37.756;2023-04-03T01:51:07;26.98;36.12
79026;DHT22;68425;44.716;37.756;2023-04-03T01:52:09;26.98;36.21
79026;DHT22;68425;44.716;37.756;2023-04-03T01:53:10;27.00;36.08
79026;DHT22;68425;44.716;37.756;2023-04-03T01:54:12;26.99;36.12
79026;DHT22;68425;44.716;37.756;2023-04-03T01:55:14;27.00;36.01
79026;DHT22;68425;44.716;37.756;2023-04-03T01:56:16;27.01;35.96
79026;DHT22;68425;44.716;37.756;2023-04-03T01:57:17;27.01;35.96
79026;DHT22;68425;44.716;37.756;2023-04-03T01:58:19;27.00;36.15
79026;DHT22;68425;44.716;37.756;2023-04-03T01:59:22;27.02;35.97
79026;DHT22;68425;44.716;37.756;2023-04-03T02:00:24;27.04;36.05
79026;DHT22;68425;44.716;37.756;2023-04-03T02:01:26;27.04;35.95
79026;DHT22;68425;44.716;37.756;2023-04-03T02:02:27;27.04;36.02
79026;DHT22;68425;44.716;37.756;2023-04-03T02:03:29;27.02;36.09
79026;DHT22;68425;44.716;37.756;2023-04-03T02:04:31;27.00;36.11
79026;DHT22;68425;44.716;37.756;2023-04-03T02:05:33;27.01;36.03
79026;DHT22;68425;44.716;37.756;2023-04-03T02:06:34;27.01;36.08
79026;DHT22;68425;44.716;37.756;2023-04-03T02:07:36;27.01;36.11
79026;DHT22;68425;44.716;37.756;2023-04-03T02:08:37;27.00;36.12
79026;DHT22;68425;44.716;37.756;2023-04-03T02:09:41;27.01;36.05
79026;DHT22;68425;44.716;37.756;2023-04-03T02:10:47;27.01;36.02
79026;DHT22;68425;44.716;37.756;2023-04-03T02:11:49;27.00;36.01
79026;DHT22;68425;44.716;37.756;2023-04-03T02:12:50;26.99;36.02
79026;DHT22;68425;44.716;37.756;2023-04-03T02:13:52;26.99;36.13
79026;DHT22;68425;44.716;37.756;2023-04-03T02:14:53;27.00;36.17
79026;DHT22;68425;44.716;37.756;2023-04-03T02:15:55;27.00;36.21
79026;DHT22;68425;44.716;37.756;2023-04-03T02:16:57;27.00;36.16
79026;DHT22;68425;44.716;37.756;2023-04-03T02:17:58;27.01;36.12
79026;DHT22;68425;44.716;37.756;2023-04-03T02:19:01;27.01;36.18
79026;DHT22;68425;44.716;37.756;2023-04-03T02:20:05;26.99;36.09
79026;DHT22;68425;44.716;37.756;2023-04-03T02:21:07;27.01;36.08
79026;DHT22;68425;44.716;37.756;2023-04-03T02:22:09;27.06;35.94
79026;DHT22;68425;44.716;37.756;2023-04-03T02:23:11;27.02;35.92
79026;DHT22;68425;44.716;37.756;2023-04-03T02:24:12;27.02;35.95
79026;DHT22;68425;44.716;37.756;2023-04-03T02:25:14;27.00;35.96
79026;DHT22;68425;44.716;37.756;2023-04-03T02:26:17;27.00;35.96
79026;DHT22;68425;44.716;37.756;2023-04-03T02:27:21;26.99;36.18
79026;DHT22;68425;44.716;37.756;2023-04-03T02:28:23;26.99;36.08
79026;DHT22;68425;44.716;37.756;2023-04-03T02:29:27;26.98;36.07
79026;DHT22;68425;44.716;37.756;2023-04-03T02:30:29;26.98;36.16
79026;DHT22;68425;44.716;37.756;2023-04-03T02:31:33;26.99;36.21
79026;DHT22;68425;44.716;37.756;2023-04-03T02:32:36;26.98;36.21
79026;DHT22;68425;44.716;37.756;2023-04-03T02:33:38;26.97;36.05
79026;DHT22;68425;44.716;37.756;2023-04-03T02:34:42;26.98;36.08
79026;DHT22;68425;44.716;37.756;2023-04-03T02:35:46;26.99;36.06
79026;DHT22;68425;44.716;37.756;2023-04-03T02:36:55;26.98;36.06
79026;DHT22;68425;44.716;37.756;2023-04-03T02:37:57;26.97;36.09
79026;DHT22;68425;44.716;37.756;2023-04-03T02:38:59;26.96;36.15
79026;DHT22;68425;44.716;37.756;2023-04-03T02:40:00;26.96;36.24
79026;DHT22;68425;44.716;37.756;2023-04-03T02:41:04;26.97;36.04
79026;DHT22;68425;44.716;37.756;2023-04-03T02:42:07;26.97;35.96
79026;DHT22;68425;44.716;37.756;2023-04-03T02:43:09;27.00;35.95
79026;DHT22;68425;44.716;37.756;2023-04-03T02:44:12;27.00;35.93
79026;DHT22;68425;44.716;37.756;2023-04-03T02:45:14;26.99;35.99
79026;DHT22;68425;44.716;37.756;2023-04-03T02:46:16;26.99;36.03
79026;DHT22;68425;44.716;37.756;2023-04-03T02:47:18;27.00;36.01
79026;DHT22;68425;44.716;37.756;2023-04-03T02:48:19;27.00;35.92
79026;DHT22;68425;44.716;37.756;2023-04-03T02:49:21;26.97;36.21
79026;DHT22;68425;44.716;37.756;2023-04-03T02:50:23;26.98;36.14
79026;DHT22;68425;44.716;37.756;2023-04-03T02:51:24;26.99;36.18
79026;DHT22;68425;44.716;37.756;2023-04-03T02:52:27;26.97;36.05
79026;DHT22;68425;44.716;37.756;2023-04-03T02:53:31;26.96;36.04
79026;DHT22;68425;44.716;37.756;2023-04-03T02:54:36;26.96;36.07
79026;DHT22;68425;44.716;37.756;2023-04-03T02:55:41;26.97;36.13
79026;DHT22;68425;44.716;37.756;2023-04-03T02:56:42;26.97;36.04
79026;DHT22;68425;44.716;37.756;2023-04-03T02:57:43;26.97;36.16
79026;DHT22;68425;44.716;37.756;2023-04-03T02:58:45;26.96;36.24
79026;DHT22;68425;44.716;37.756;2023-04-03T02:59:46;26.95;36.10
79026;DHT22;68425;44.716;37.756;2023-04-03T03:00:48;26.95;36.06
79026;DHT22;68425;44.716;37.756;2023-04-03T03:01:49;26.96;36.15
79026;DHT22;68425;44.716;37.756;2023-04-03T03:02:51;26.97;36.21
79026;DHT22;68425;44.716;37.756;2023-04-03T03:03:52;26.97;36.01
79026;DHT22;68425;44.716;37.756;2023-04-03T03:04:53;26.99;36.05
79026;DHT22;68425;44.716;37.756;2023-04-03T03:06:15;26.94;36.37
79026;DHT22;68425;44.716;37.756;2023-04-03T03:07:17;26.98;36.04
79026;DHT22;68425;44.716;37.756;2023-04-03T03:08:18;26.97;36.02
79026;DHT22;68425;44.716;37.756;2023-04-03T03:09:21;26.98;35.98
79026;DHT22;68425;44.716;37.756;2023-04-03T03:10:23;26.98;36.11
79026;DHT22;68425;44.716;37.756;2023-04-03T03:11:24;26.96;36.18
79026;DHT22;68425;44.716;37.756;2023-04-03T03:12:27;26.97;36.11
79026;DHT22;68425;44.716;37.756;2023-04-03T03:13:31;26.96;36.10
79026;DHT22;68425;44.716;37.756;2023-04-03T03:14:32;26.95;36.14
79026;DHT22;68425;44.716;37.756;2023-04-03T03:15:35;26.96;36.13
79026;DHT22;68425;44.716;37.756;2023-04-03T03:16:37;26.96;36.11
79026;DHT22;68425;44.716;37.756;2023-04-03T03:17:38;26.96;36.11
79026;DHT22;68425;44.716;37.756;2023-04-03T03:18:39;26.96;36.05
79026;DHT22;68425;44.716;37.756;2023-04-03T03:19:41;26.95;36.02
79026;DHT22;68425;44.716;37.756;2023-04-03T03:20:42;26.95;36.03
79026;DHT22;68425;44.716;37.756;2023-04-03T03:21:44;26.94;36.31
79026;DHT22;68425;44.716;37.756;2023-04-03T03:22:45;26.93;36.23
79026;DHT22;68425;44.716;37.756;2023-04-03T03:23:46;26.93;36.27
79026;DHT22;68425;44.716;37.756;2023-04-03T03:24:48;26.94;36.24
79026;DHT22;68425;44.716;37.756;2023-04-03T03:25:56;26.94;36.17
79026;DHT22;68425;44.716;37.756;2023-04-03T03:26:58;26.96;36.05
79026;DHT22;68425;44.716;37.756;2023-04-03T03:27:59;26.96;36.12
79026;DHT22;68425;44.716;37.756;2023-04-03T03:29:01;26.95;36.08
79026;DHT22;68425;44.716;37.756;2023-04-03T03:30:04;26.96;36.07
79026;DHT22;68425;44.716;37.756;2023-04-03T03:31:07;26.97;36.02
79026;DHT22;68425;44.716;37.756;2023-04-03T03:32:12;26.95;35.98
79026;DHT22;68425;44.716;37.756;2023-04-03T03:33:13;26.95;36.02
79026;DHT22;68425;44.716;37.756;2023-04-03T03:34:15;26.95;35.97
79026;DHT22;68425;44.716;37.756;2023-04-03T03:35:16;26.95;35.89
79026;DHT22;68425;44.716;37.756;2023-04-03T03:36:18;26.95;35.90
79026;DHT22;68425;44.716;37.756;2023-04-03T03:37:19;26.97;35.92
79026;DHT22;68425;44.716;37.756;2023-04-03T03:38:21;26.95;36.02
79026;DHT22;68425;44.716;37.756;2023-04-03T03:39:23;26.95;35.95
79026;DHT22;68425;44.716;37.756;2023-04-03T03:40:25;26.96;35.92
79026;DHT22;68425;44.716;37.756;2023-04-03T03:41:26;26.95;35.99
79026;DHT22;68425;44.716;37.756;2023-04-03T03:42:27;26.95;35.90
79026;DHT22;68425;44.716;37.756;2023-04-03T03:43:29;26.95;36.03
79026;DHT22;68425;44.716;37.756;2023-04-03T03:44:31;26.93;36.04
79026;DHT22;68425;44.716;37.756;2023-04-03T03:45:32;26.92;35.96
79026;DHT22;68425;44.716;37.756;2023-04-03T03:46:34;26.93;35.98
79026;DHT22;68425;44.716;37.756;2023-04-03T03:47:35;26.93;36.01
79026;DHT22;68425;44.716;37.756;2023-04-03T03:48:37;26.93;36.03
79026;DHT22;68425;44.716;37.756;2023-04-03T03:49:38;26.92;35.93
79026;DHT22;68425;44.716;37.756;2023-04-03T03:50:40;26.93;35.91
79026;DHT22;68425;44.716;37.756;2023-04-03T03:51:41;26.93;36.01
79026;DHT22;68425;44.716;37.756;2023-04-03T03:52:43;26.93;35.89
79026;DHT22;68425;44.716;37.756;2023-04-03T03:53:44;26.93;36.17
79026;DHT22;68425;44.716;37.756;2023-04-03T03:54:49;26.92;35.98
79026;DHT22;68425;44.716;37.756;2023-04-03T03:55:51;26.91;36.07
79026;DHT22;68425;44.716;37.756;2023-04-03T03:56:54;26.91;35.89
79026;DHT22;68425;44.716;37.756;2023-04-03T03:57:58;26.93;35.90
79026;DHT22;68425;44.716;37.756;2023-04-03T03:59:02;26.94;36.13
79026;DHT22;68425;44.716;37.756;2023-04-03T04:00:06;26.91;36.09
79026;DHT22;68425;44.716;37.756;2023-04-03T04:01:16;26.92;36.08
79026;DHT22;68425;44.716;37.756;2023-04-03T04:02:21;26.92;36.08
79026;DHT22;68425;44.716;37.756;2023-04-03T04:03:23;26.91;36.19
79026;DHT22;68425;44.716;37.756;2023-04-03T04:04:25;26.92;36.04
79026;DHT22;68425;44.716;37.756;2023-04-03T04:05:27;26.92;36.02
79026;DHT22;68425;44.716;37.756;2023-04-03T04:06:29;26.91;36.16
79026;DHT22;68425;44.716;37.756;2023-04-03T04:07:33;26.89;36.13
79026;DHT22;68425;44.716;37.756;2023-04-03T04:08:36;26.87;36.08
79026;DHT22;68425;44.716;37.756;2023-04-03T04:09:38;26.87;36.12
79026;DHT22;68425;44.716;37.756;2023-04-03T04:10:40;26.89;36.08
79026;DHT22;68425;44.716;37.756;2023-04-03T04:11:42;26.87;35.96
79026;DHT22;68425;44.716;37.756;2023-04-03T04:12:46;26.89;35.97
79026;DHT22;68425;44.716;37.756;2023-04-03T04:13:48;26.89;36.08
79026;DHT22;68425;44.716;37.756;2023-04-03T04:14:51;26.91;36.11
79026;DHT22;68425;44.716;37.756;2023-04-03T04:15:53;26.91;36.12
79026;DHT22;68425;44.716;37.756;2023-04-03T04:16:54;26.90;36.08
79026;DHT22;68425;44.716;37.756;2023-04-03T04:17:59;26.87;36.20
79026;DHT22;68425;44.716;37.756;2023-04-03T04:19:00;26.87;36.08
79026;DHT22;68425;44.716;37.756;2023-04-03T04:20:03;26.86;36.11
79026;DHT22;68425;44.716;37.756;2023-04-03T04:21:06;26.86;36.13
79026;DHT22;68425;44.716;37.756;2023-04-03T04:22:08;26.86;36.11
79026;DHT22;68425;44.716;37.756;2023-04-03T04:23:09;26.86;36.09
79026;DHT22;68425;44.716;37.756;2023-04-03T04:24:12;26.86;36.14
79026;DHT22;68425;44.716;37.756;2023-04-03T04:25:14;26.87;36.11
79026;DHT22;68425;44.716;37.756;2023-04-03T04:26:16;26.89;36.09
79026;DHT22;68425;44.716;37.756;2023-04-03T04:27:17;26.87;36.22
79026;DHT22;68425;44.716;37.756;2023-04-03T04:28:19;26.87;36.13
79026;DHT22;68425;44.716;37.756;2023-04-03T04:29:22;26.87;36.13
79026;DHT22;68425;44.716;37.756;2023-04-03T04:30:26;26.90;36.16
79026;DHT22;68425;44.716;37.756;2023-04-03T04:31:30;26.91;36.22
79026;DHT22;68425;44.716;37.756;2023-04-03T04:32:31;26.92;36.22
79026;DHT22;68425;44.716;37.756;2023-04-03T04:33:32;26.93;36.24
79026;DHT22;68425;44.716;37.756;2023-04-03T04:34:37;26.93;36.30
79026;DHT22;68425;44.716;37.756;2023-04-03T04:35:38;26.93;36.59
79026;DHT22;68425;44.716;37.756;2023-04-03T04:36:40;26.92;36.67
79026;DHT22;68425;44.716;37.756;2023-04-03T04:37:41;26.92;36.50
79026;DHT22;68425;44.716;37.756;2023-04-03T04:38:43;26.91;36.45
79026;DHT22;68425;44.716;37.756;2023-04-03T04:39:44;26.91;36.47
79026;DHT22;68425;44.716;37.756;2023-04-03T04:40:47;26.90;36.54
79026;DHT22;68425;44.716;37.756;2023-04-03T04:41:49;26.89;36.65
79026;DHT22;68425;44.716;37.756;2023-04-03T04:42:50;26.86;36.68
79026;DHT22;68425;44.716;37.756;2023-04-03T04:43:52;26.85;36.72
79026;DHT22;68425;44.716;37.756;2023-04-03T04:44:53;26.84;36.76
79026;DHT22;68425;44.716;37.756;2023-04-03T04:46:03;26.84;36.72
79026;DHT22;68425;44.716;37.756;2023-04-03T04:47:07;26.84;36.72
79026;DHT22;68425;44.716;37.756;2023-04-03T04:48:09;26.84;36.76
79026;DHT22;68425;44.716;37.756;2023-04-03T04:49:11;26.84;36.79
79026;DHT22;68425;44.716;37.756;2023-04-03T04:50:13;26.84;36.76
79026;DHT22;68425;44.716;37.756;2023-04-03T04:51:15;26.84;36.80
79026;DHT22;68425;44.716;37.756;2023-04-03T04:52:16;26.84;36.78
79026;DHT22;68425;44.716;37.756;2023-04-03T04:53:18;26.84;36.75
79026;DHT22;68425;44.716;37.756;2023-04-03T04:54:19;26.83;36.76
79026;DHT22;68425;44.716;37.756;2023-04-03T04:55:22;26.82;36.82
79026;DHT22;68425;44.716;37.756;2023-04-03T04:56:24;26.84;36.78
79026;DHT22;68425;44.716;37.756;2023-04-03T04:57:28;26.85;36.76
79026;DHT22;68425;44.716;37.756;2023-04-03T04:58:32;26.83;36.76
79026;DHT22;68425;44.716;37.756;2023-04-03T04:59:35;26.85;36.73
79026;DHT22;68425;44.716;37.756;2023-04-03T05:00:37;26.85;36.76
79026;DHT22;68425;44.716;37.756;2023-04-03T05:01:39;26.86;36.70
79026;DHT22;68425;44.716;37.756;2023-04-03T05:02:48;26.87;36.69
79026;DHT22;68425;44.716;37.756;2023-04-03T05:03:50;26.86;36.70
79026;DHT22;68425;44.716;37.756;2023-04-03T05:04:52;26.87;36.67
79026;DHT22;68425;44.716;37.756;2023-04-03T05:05:58;26.87;36.68
79026;DHT22;68425;44.716;37.756;2023-04-03T05:07:00;26.87;36.66
79026;DHT22;68425;44.716;37.756;2023-04-03T05:08:04;26.87;36.67
79026;DHT22;68425;44.716;37.756;2023-04-03T05:09:06;26.86;36.66
79026;DHT22;68425;44.716;37.756;2023-04-03T05:10:09;26.87;36.65
79026;DHT22;68425;44.716;37.756;2023-04-03T05:11:10;26.90;36.63
79026;DHT22;68425;44.716;37.756;2023-04-03T05:12:13;26.90;36.62
79026;DHT22;68425;44.716;37.756;2023-04-03T05:13:21;26.92;36.58
79026;DHT22;68425;44.716;37.756;2023-04-03T05:14:23;26.93;36.57
79026;DHT22;68425;44.716;37.756;2023-04-03T05:15:26;26.91;36.59
79026;DHT22;68425;44.716;37.756;2023-04-03T05:16:27;26.91;36.59
79026;DHT22;68425;44.716;37.756;2023-04-03T05:17:30;26.90;36.58
79026;DHT22;68425;44.716;37.756;2023-04-03T05:18:31;26.91;36.56
79026;DHT22;68425;44.716;37.756;2023-04-03T05:19:37;26.93;36.53
79026;DHT22;68425;44.716;37.756;2023-04-03T05:20:40;26.92;36.56
79026;DHT22;68425;44.716;37.756;2023-04-03T05:21:41;26.90;36.59
79026;DHT22;68425;44.716;37.756;2023-04-03T05:22:47;26.91;36.55
79026;DHT22;68425;44.716;37.756;2023-04-03T05:23:49;26.92;36.56
79026;DHT22;68425;44.716;37.756;2023-04-03T05:24:51;26.92;36.55
79026;DHT22;68425;44.716;37.756;2023-04-03T05:25:53;26.93;36.56
79026;DHT22;68425;44.716;37.756;2023-04-03T05:26:55;26.92;36.53
79026;DHT22;68425;44.716;37.756;2023-04-03T05:27:57;26.91;36.52
79026;DHT22;68425;44.716;37.756;2023-04-03T05:28:59;26.92;36.54
79026;DHT22;68425;44.716;37.756;2023-04-03T05:30:01;26.92;36.55
79026;DHT22;68425;44.716;37.756;2023-04-03T05:31:03;26.91;36.55
79026;DHT22;68425;44.716;37.756;2023-04-03T05:32:10;26.91;36.54
79026;DHT22;68425;44.716;37.756;2023-04-03T05:33:11;26.92;36.54
79026;DHT22;68425;44.716;37.756;2023-04-03T05:34:22;26.91;36.53
79026;DHT22;68425;44.716;37.756;2023-04-03T05:35:26;26.92;36.55
79026;DHT22;68425;44.716;37.756;2023-04-03T05:36:32;26.92;36.54
79026;DHT22;68425;44.716;37.756;2023-04-03T05:37:38;26.93;36.52
79026;DHT22;68425;44.716;37.756;2023-04-03T05:38:40;26.93;36.49
79026;DHT22;68425;44.716;37.756;2023-04-03T05:39:41;26.93;36.53
79026;DHT22;68425;44.716;37.756;2023-04-03T05:40:44;26.93;36.52
79026;DHT22;68425;44.716;37.756;2023-04-03T05:41:45;26.94;36.51
79026;DHT22;68425;44.716;37.756;2023-04-03T05:42:47;26.92;36.50
79026;DHT22;68425;44.716;37.756;2023-04-03T05:43:50;26.94;36.47
79026;DHT22;68425;44.716;37.756;2023-04-03T05:44:51;26.94;36.47
79026;DHT22;68425;44.716;37.756;2023-04-03T05:45:53;26.95;36.44
79026;DHT22;68425;44.716;37.756;2023-04-03T05:46:56;26.95;36.43
79026;DHT22;68425;44.716;37.756;2023-04-03T05:47:57;26.95;36.41
79026;DHT22;68425;44.716;37.756;2023-04-03T05:48:59;26.97;36.39
79026;DHT22;68425;44.716;37.756;2023-04-03T05:50:05;26.97;36.38
79026;DHT22;68425;44.716;37.756;2023-04-03T05:51:14;26.96;36.42
79026;DHT22;68425;44.716;37.756;2023-04-03T05:52:28;26.96;36.41
79026;DHT22;68425;44.716;37.756;2023-04-03T05:53:33;26.97;36.40
79026;DHT22;68425;44.716;37.756;2023-04-03T05:54:38;26.97;36.40
79026;DHT22;68425;44.716;37.756;2023-04-03T05:55:52;26.98;36.37
79026;DHT22;68425;44.716;37.756;2023-04-03T05:56:55;26.97;36.38
79026;DHT22;68425;44.716;37.756;2023-04-03T05:57:57;26.96;36.40
79026;DHT22;68425;44.716;37.756;2023-04-03T05:58:59;26.97;36.40
79026;DHT22;68425;44.716;37.756;2023-04-03T06:00:01;26.96;36.40
79026;DHT22;68425;44.716;37.756;2023-04-03T06:01:03;26.97;36.38
79026;DHT22;68425;44.716;37.756;2023-04-03T06:02:04;26.97;36.37
79026;DHT22;68425;44.716;37.756;2023-04-03T06:03:06;26.98;36.37
79026;DHT22;68425;44.716;37.756;2023-04-03T06:04:08;26.99;36.36
79026;DHT22;68425;44.716;37.756;2023-04-03T06:05:10;26.98;36.37
79026;DHT22;68425;44.716;37.756;2023-04-03T06:06:14;26.96;36.37
79026;DHT22;68425;44.716;37.756;2023-04-03T06:07:23;26.97;36.40
79026;DHT22;68425;44.716;37.756;2023-04-03T06:08:27;26.97;36.37
79026;DHT22;68425;44.716;37.756;2023-04-03T06:09:29;26.98;36.37
79026;DHT22;68425;44.716;37.756;2023-04-03T06:10:31;26.99;36.35
79026;DHT22;68425;44.716;37.756;2023-04-03T06:11:32;26.99;36.35
79026;DHT22;68425;44.716;37.756;2023-04-03T06:12:34;26.99;36.34
79026;DHT22;68425;44.716;37.756;2023-04-03T06:13:35;26.99;36.34
79026;DHT22;68425;44.716;37.756;2023-04-03T06:14:37;26.99;36.35
79026;DHT22;68425;44.716;37.756;2023-04-03T06:15:38;26.99;36.36
79026;DHT22;68425;44.716;37.756;2023-04-03T06:16:44;26.98;36.34
79026;DHT22;68425;44.716;37.756;2023-04-03T06:17:45;27.00;36.34
79026;DHT22;68425;44.716;37.756;2023-04-03T06:18:47;26.99;36.33
79026;DHT22;68425;44.716;37.756;2023-04-03T06:19:48;26.98;36.34
79026;DHT22;68425;44.716;37.756;2023-04-03T06:20:50;26.99;36.34
79026;DHT22;68425;44.716;37.756;2023-04-03T06:21:52;26.99;36.32
79026;DHT22;68425;44.716;37.756;2023-04-03T06:22:53;27.00;36.30
79026;DHT22;68425;44.716;37.756;2023-04-03T06:23:55;27.00;36.31
79026;DHT22;68425;44.716;37.756;2023-04-03T06:24:57;27.00;36.32
79026;DHT22;68425;44.716;37.756;2023-04-03T06:25:58;26.99;36.31
79026;DHT22;68425;44.716;37.756;2023-04-03T06:27:00;26.99;36.31
79026;DHT22;68425;44.716;37.756;2023-04-03T06:28:02;27.00;36.29
79026;DHT22;68425;44.716;37.756;2023-04-03T06:29:03;27.01;36.28
79026;DHT22;68425;44.716;37.756;2023-04-03T06:30:06;27.02;36.28
79026;DHT22;68425;44.716;37.756;2023-04-03T06:31:08;27.01;36.27
79026;DHT22;68425;44.716;37.756;2023-04-03T06:32:09;27.01;36.30
79026;DHT22;68425;44.716;37.756;2023-04-03T06:33:11;27.01;36.28
79026;DHT22;68425;44.716;37.756;2023-04-03T06:34:13;27.01;36.28